Flight Track Log - Related Links

Times and Time Zones

All times are in EDT time to prevent confusion due to time zone crossing. See the JBU673 flight status page for this flight to view local times or setup timezone preferences in your user account.

Time Position Orientation Groundspeed Altitude Reporting Facility
EDT Latitude Longitude Course Direction KTS MPH feet Rate Location/Type
Sat 11:18:27 AM 40.6360 -73.7890 323° Northwest 147 169 100  Level FlightAware ADS-B
Sat 11:18:57 AM 40.6480 -73.8170 299° West 175 201 900 1,800 Climbing FlightAware ADS-B
Sat 11:19:07 AM 40.6490 -73.8250 279° West 176 203 1,300 1,650 Climbing FlightAware ADS-B
Sat 11:19:37 AM 40.6370 -73.8580 244° Southwest 207 238 2,000 1,200 Climbing FlightAware ADS-B
Sat 11:20:07 AM 40.6140 -73.8860 223° Southwest 250 288 2,500 900 Climbing FlightAware ADS-B
Sat 11:20:17 AM 40.6040 -73.8880 189° South 266 306 2,600 2,000 Climbing FlightAware ADS-B
Sat 11:20:37 AM 40.5810 -73.8720 152° Southeast 276 318 3,500 2,914 Climbing FlightAware ADS-B
Sat 11:20:52 AM 40.5750 -73.8470 108° East 274 315 4,300 2,850 Climbing FlightAware ADS-B
Sat 11:21:17 AM 40.5790 -73.8090 82° East 279 321 5,400 2,727 Climbing FlightAware ADS-B
Sat 11:21:47 AM 40.5860 -73.7560 80° East 286 329 6,800 2,509 Climbing FlightAware ADS-B
Sat 11:22:12 AM 40.5920 -73.7110 80° East 297 342 7,700 2,291 Climbing FlightAware ADS-B
Sat 11:22:42 AM 40.6010 -73.6580 77° East 307 353 8,900 2,526 Climbing FlightAware ADS-B
Sat 11:22:50 AM 40.6050 -73.6391 74° East 310 357 9,300 2,308 Climbing FlightAware ADS-B
Sat 11:22:55 AM 40.6075 -73.6316 66° East 311 358 9,400 1,333 Climbing FlightAware ADS-B
Sat 11:22:59 AM 40.6105 -73.6248 60° Northeast 311 358 9,500 1,500 Climbing FlightAware ADS-B
Sat 11:23:07 AM 40.6175 -73.6137 50° Northeast 310 357 9,700 1,500 Climbing FlightAware ADS-B
Sat 11:23:11 AM 40.6219 -73.6085 42° Northeast 308 354 9,800 1,600 Climbing FlightAware ADS-B
Sat 11:23:22 AM 40.6352 -73.5985 30° Northeast 304 350 10,100 1,800 Climbing FlightAware ADS-B
Sat 11:23:31 AM 40.6472 -73.5944 15° North 294 338 10,400 2,625 Climbing FlightAware ADS-B
Sat 11:23:38 AM 40.6571 -73.5924 North 292 336 10,800 1,565 Climbing FlightAware ADS-B
Sat 11:24:17 AM 40.7090 -73.5850 North 319 367 11,600 1,200 Climbing FlightAware ADS-B
Sat 11:24:33 AM 40.7360 -73.5814 North 338 389 11,900 931 Climbing FlightAware ADS-B
Sat 11:25:15 AM 40.8052 -73.5730 North 371 427 12,500 1,068 Climbing FlightAware ADS-B
Sat 11:25:46 AM 40.8600 -73.5765 357° North 381 438 13,200 1,463 Climbing FlightAware ADS-B
Sat 11:25:56 AM 40.8768 -73.5839 342° North 371 427 13,500 2,000 Climbing FlightAware ADS-B
Sat 11:26:01 AM 40.8843 -73.5892 332° Northwest 364 419 13,700 1,800 Climbing FlightAware ADS-B
Sat 11:26:06 AM 40.8904 -73.5948 325° Northwest 361 415 13,800 2,000 Climbing FlightAware ADS-B
Sat 11:26:37 AM 40.9275 -73.6425 316° Northwest 355 409 14,900 1,935 Climbing FlightAware ADS-B
Sat 11:27:08 AM 40.9630 -73.6895 315° West 360 414 15,800 1,831 Climbing FlightAware ADS-B
Sat 11:27:36 AM 40.9965 -73.7338 315° West 361 415 16,700 1,737 Climbing FlightAware ADS-B
Sat 11:27:46 AM 41.0068 -73.7509 309° West 357 411 16,900 947 Climbing FlightAware ADS-B
Sat 11:27:55 AM 41.0138 -73.7675 299° West 349 402 17,000 333 Climbing FlightAware ADS-B
Sat 11:28:04 AM 41.0190 -73.7859 291° West 344 396 17,000  Level FlightAware ADS-B
Sat 11:28:19 AM 41.0236 -73.8163 281° West 339 390 17,000  Level FlightAware ADS-B
Sat 11:28:36 AM 41.0280 -73.8505 280° West 340 391 17,000  Level FlightAware ADS-B
Sat 11:28:49 AM 41.0317 -73.8779 280° West 340 391 17,000  Level FlightAware ADS-B
Sat 11:29:07 AM 41.0364 -73.9135 280° West 340 391 17,000  Level FlightAware ADS-B
Sat 11:29:22 AM 41.0405 -73.9439 280° West 341 392 17,000  Level FlightAware ADS-B
Sat 11:29:37 AM 41.0447 -73.9766 280° West 339 390 17,000  Level FlightAware ADS-B
Sat 11:29:52 AM 41.0486 -74.0062 280° West 341 392 17,000  Level FlightAware ADS-B
Sat 11:30:09 AM 41.0532 -74.0406 280° West 344 396 17,000  Level FlightAware ADS-B
Sat 11:30:23 AM 41.0569 -74.0694 280° West 342 394 17,000  Level FlightAware ADS-B
Sat 11:30:39 AM 41.0613 -74.1038 280° West 341 392 17,000 774 Level FlightAware ADS-B
Sat 11:30:54 AM 41.0653 -74.1345 280° West 342 394 17,400 1,742 Climbing FlightAware ADS-B
Sat 11:31:10 AM 41.0695 -74.1675 280° West 343 395 17,900 1,688 Climbing FlightAware ADS-B
Sat 11:31:26 AM 41.0736 -74.1997 280° West 345 397 18,300 1,588 Climbing FlightAware ADS-B
Sat 11:31:44 AM 41.0784 -74.2375 280° West 344 396 18,800 1,742 Climbing FlightAware ADS-B
Sat 11:31:57 AM 41.0819 -74.2643 280° West 346 398 19,200 1,600 Climbing FlightAware ADS-B
Sat 11:32:29 AM 41.0906 -74.3320 280° West 351 404 20,000 1,524 Climbing FlightAware ADS-B
Sat 11:33:00 AM 41.0989 -74.3975 280° West 353 406 20,800 1,429 Climbing FlightAware ADS-B
Sat 11:33:32 AM 41.1076 -74.4666 280° West 359 413 21,500 1,143 Climbing FlightAware ADS-B
Sat 11:34:03 AM 41.1163 -74.5355 280° West 367 422 22,000 1,377 Climbing FlightAware ADS-B
Sat 11:34:33 AM 41.1247 -74.6018 280° West 363 418 22,900 1,469 Climbing FlightAware ADS-B
Sat 11:34:52 AM 41.1310 -74.6420 282° West 368 423 23,200 1,091 Climbing FlightAware ADS-B
Sat 11:35:06 AM 41.1373 -74.6719 286° West 372 428 23,500 1,455 Climbing FlightAware ADS-B
Sat 11:35:25 AM 41.1487 -74.7140 290° West 374 430 24,000 1,650 Climbing FlightAware ADS-B
Sat 11:35:46 AM 41.1634 -74.7570 294° West 374 430 24,600 1,731 Climbing FlightAware ADS-B
Sat 11:36:17 AM 41.1897 -74.8181 300° West 370 426 25,500 1,475 Climbing FlightAware ADS-B
Sat 11:36:47 AM 41.2160 -74.8779 300° West 370 426 26,100 885 Climbing FlightAware ADS-B
Sat 11:37:18 AM 41.2423 -74.9390 300° West 377 434 26,400 716 Climbing FlightAware ADS-B
Sat 11:37:54 AM 41.2740 -75.0122 300° West 382 440 26,900 845 Climbing FlightAware ADS-B
Sat 11:38:29 AM 41.3049 -75.0835 300° West 385 443 27,400 831 Climbing FlightAware ADS-B
Sat 11:38:59 AM 41.3316 -75.1454 300° West 388 447 27,800 787 Climbing FlightAware ADS-B
Sat 11:39:30 AM 41.3589 -75.2092 300° West 390 449 28,200 938 Climbing FlightAware ADS-B
Sat 11:40:03 AM 41.3881 -75.2772 300° West 388 447 28,800 1,048 Climbing FlightAware ADS-B
Sat 11:40:33 AM 41.4154 -75.3408 300° West 386 444 29,300 1,082 Climbing FlightAware ADS-B
Sat 11:41:04 AM 41.4418 -75.4026 300° West 382 440 29,900 1,100 Climbing FlightAware ADS-B
Sat 11:41:33 AM 41.4674 -75.4634 299° West 379 436 30,400 1,000 Climbing FlightAware ADS-B
Sat 11:41:46 AM 41.4770 -75.4892 296° West 374 430 30,600 894 Climbing FlightAware ADS-B
Sat 11:42:20 AM 41.4989 -75.5620 292° West 368 423 31,100 938 Climbing FlightAware ADS-B
Sat 11:42:50 AM 41.5171 -75.6253 291° West 365 420 31,600 885 Climbing FlightAware ADS-B
Sat 11:43:21 AM 41.5356 -75.6902 291° West 365 420 32,000 885 Climbing FlightAware ADS-B
Sat 11:43:51 AM 41.5537 -75.7531 291° West 362 417 32,500 750 Climbing FlightAware ADS-B
Sat 11:44:25 AM 41.5736 -75.8236 291° West 362 417 32,800 529 Climbing FlightAware ADS-B
Sat 11:44:59 AM 41.5938 -75.8948 291° West 363 418 33,100 545 Climbing FlightAware ADS-B
Sat 11:45:31 AM 41.6129 -75.9617 291° West 363 418 33,400 667 Climbing FlightAware ADS-B
Sat 11:46:02 AM 41.6310 -76.0251 291° West 361 415 33,800 590 Climbing FlightAware ADS-B
Sat 11:46:32 AM 41.6488 -76.0879 291° West 357 411 34,000 194 Climbing FlightAware ADS-B
Sat 11:47:04 AM 41.6672 -76.1533 291° West 358 412 34,000  Level FlightAware ADS-B
Sat 11:47:41 AM 41.6886 -76.2303 290° West 357 411 34,000  Level FlightAware ADS-B
Sat 11:48:12 AM 41.7064 -76.2946 290° West 360 414 34,000  Level FlightAware ADS-B
Sat 11:48:45 AM 41.7260 -76.3645 291° West 362 417 34,000  Level FlightAware ADS-B
Sat 11:49:19 AM 41.7457 -76.4351 291° West 362 417 34,000  Level FlightAware ADS-B
Sat 11:49:50 AM 41.7637 -76.4997 291° West 364 419 34,000  Level FlightAware ADS-B
Sat 11:50:28 AM 41.7859 -76.5803 290° West 366 421 34,000  Level FlightAware ADS-B
Sat 11:51:27 AM 41.8170 -76.6910 291° West 367 422 34,000  Level FlightAware ADS-B
Sat 11:52:07 AM 41.8400 -76.7740 290° West 369 425 34,000  Level FlightAware ADS-B
Sat 11:52:47 AM 41.8630 -76.8600 290° West 370 426 34,000  Level FlightAware ADS-B
Sat 11:53:32 AM 41.8890 -76.9550 290° West 371 427 34,000  Level FlightAware ADS-B
Sat 11:54:12 AM 41.9130 -77.0450 290° West 371 427 34,000  Level FlightAware ADS-B
Sat 11:54:52 AM 41.9370 -77.1330 290° West 372 428 34,000  Level FlightAware ADS-B
Sat 11:55:37 AM 41.9640 -77.2310 290° West 373 429 34,000  Level FlightAware ADS-B
Sat 11:56:17 AM 41.9860 -77.3160 289° West 373 429 34,000  Level FlightAware ADS-B
Sat 11:56:52 AM 42.0060 -77.3900 290° West 372 428 34,000  Level FlightAware ADS-B
Sat 11:57:32 AM 42.0300 -77.4800 290° West 369 425 34,000  Level FlightAware ADS-B
Sat 11:58:07 AM 42.0500 -77.5560 290° West 367 422 34,000  Level FlightAware ADS-B
Sat 11:58:47 AM 42.0730 -77.6410 290° West 366 421 34,000  Level FlightAware ADS-B
Sat 11:59:32 AM 42.0980 -77.7350 290° West 369 425 34,000  Level FlightAware ADS-B
Sat 12:00:12 PM 42.1210 -77.8240 289° West 370 426 34,000  Level FlightAware ADS-B
Sat 12:00:57 PM 42.1470 -77.9230 290° West 372 428 34,000  Level FlightAware ADS-B
Sat 12:01:37 PM 42.1700 -78.0110 289° West 374 430 34,000  Level FlightAware ADS-B
Sat 12:02:17 PM 42.1920 -78.0940 290° West 376 433 34,000  Level FlightAware ADS-B
Sat 12:03:02 PM 42.2180 -78.1970 289° West 377 434 34,000  Level FlightAware ADS-B
Sat 12:03:42 PM 42.2410 -78.2870 289° West 377 434 34,000  Level FlightAware ADS-B
Sat 12:04:22 PM 42.2640 -78.3760 289° West 378 435 34,000  Level FlightAware ADS-B
Sat 12:05:07 PM 42.2900 -78.4750 290° West 381 438 34,000  Level FlightAware ADS-B
Sat 12:05:47 PM 42.3130 -78.5660 289° West 383 441 34,000  Level FlightAware ADS-B
Sat 12:06:32 PM 42.3390 -78.6690 289° West 385 443 34,000  Level FlightAware ADS-B
Sat 12:07:12 PM 42.3620 -78.7580 289° West 387 445 34,000  Level FlightAware ADS-B
Sat 12:07:52 PM 42.3860 -78.8520 289° West 387 445 34,000  Level FlightAware ADS-B
Sat 12:08:37 PM 42.4110 -78.9550 288° West 387 445 34,000  Level FlightAware ADS-B
Sat 12:09:17 PM 42.4340 -79.0460 289° West 388 447 34,000  Level FlightAware ADS-B
Sat 12:09:57 PM 42.4570 -79.1390 289° West 388 447 34,000  Level FlightAware ADS-B
Sat 12:10:42 PM 42.4820 -79.2430 288° West 385 443 34,000  Level FlightAware ADS-B
Sat 12:11:22 PM 42.4940 -79.3360 280° West 378 435 34,000  Level FlightAware ADS-B
Sat 12:12:07 PM 42.4990 -79.4420 274° West 377 434 34,000  Level FlightAware ADS-B
Sat 12:12:47 PM 42.5040 -79.5360 274° West 377 434 34,000  Level FlightAware ADS-B
Sat 12:13:27 PM 42.5080 -79.6300 273° West 378 435 34,000  Level FlightAware ADS-B
Sat 12:14:12 PM 42.5130 -79.7380 274° West 381 438 34,000  Level FlightAware ADS-B
Sat 12:14:52 PM 42.5180 -79.8320 274° West 381 438 34,000  Level FlightAware ADS-B
Sat 12:15:37 PM 42.5230 -79.9400 274° West 382 440 34,000  Level FlightAware ADS-B
Sat 12:16:17 PM 42.5270 -80.0330 273° West 382 440 34,000  Level FlightAware ADS-B
Sat 12:16:57 PM 42.5310 -80.1300 273° West 381 438 34,000  Level FlightAware ADS-B
Sat 12:17:42 PM 42.5350 -80.2390 273° West 382 440 34,000  Level FlightAware ADS-B
Sat 12:18:22 PM 42.5390 -80.3310 273° West 383 441 34,000  Level FlightAware ADS-B
Sat 12:19:07 PM 42.5440 -80.4420 274° West 384 442 34,000  Level FlightAware ADS-B
Sat 12:19:47 PM 42.5480 -80.5360 273° West 385 443 34,000  Level FlightAware ADS-B
Sat 12:20:27 PM 42.5510 -80.6350 272° West 385 443 34,000  Level FlightAware ADS-B
Sat 12:21:12 PM 42.5560 -80.7430 274° West 384 442 34,000  Level FlightAware ADS-B
Sat 12:21:52 PM 42.5590 -80.8370 273° West 382 440 34,000  Level FlightAware ADS-B
Sat 12:22:32 PM 42.5630 -80.9330 273° West 382 440 34,000  Level FlightAware ADS-B
Sat 12:23:17 PM 42.5660 -81.0410 272° West 385 443 34,000  Level FlightAware ADS-B
Sat 12:24:02 PM 42.5700 -81.1510 273° West 391 450 34,000  Level FlightAware ADS-B
Sat 12:24:42 PM 42.5730 -81.2490 272° West 398 458 34,000  Level FlightAware ADS-B
Sat 12:25:22 PM 42.5770 -81.3440 273° West 403 464 34,000 75 Level FlightAware ADS-B
Sat 12:26:02 PM 42.5840 -81.4510 275° West 412 474 34,100 80 Climbing FlightAware ADS-B
Sat 12:26:37 PM 42.5990 -81.5410 283° West 415 478 34,100  Level FlightAware ADS-B
Sat 12:27:42 PM 42.6270 -81.6950 284° West 406 467 34,100 -57 Level FlightAware ADS-B
Sat 12:28:22 PM 42.6460 -81.8060 283° West 399 459 34,000 -71 Descending FlightAware ADS-B
Sat 12:29:07 PM 42.6640 -81.9100 283° West 395 455 34,000  Level FlightAware ADS-B
Sat 12:29:52 PM 42.6810 -82.0060 284° West 395 455 34,000  Level FlightAware ADS-B
Sat 12:30:32 PM 42.6980 -82.1060 283° West 399 459 34,000  Level FlightAware ADS-B
Sat 12:31:12 PM 42.7160 -82.2080 284° West 404 465 34,000  Level FlightAware ADS-B
Sat 12:31:57 PM 42.7350 -82.3230 283° West 407 468 34,000  Level FlightAware ADS-B
Sat 12:32:32 PM 42.7490 -82.4060 283° West 409 471 34,000  Level FlightAware ADS-B
Sat 12:33:22 PM 42.7700 -82.5280 283° West 409 471 34,000 67 Level FlightAware ADS-B
Sat 12:34:02 PM 42.7870 -82.6330 282° West 408 470 34,100 80 Climbing FlightAware ADS-B
Sat 12:34:37 PM 42.8030 -82.7270 283° West 405 466 34,100 -75 Level FlightAware ADS-B
Sat 12:35:22 PM 42.8200 -82.8290 283° West 403 464 34,000 -67 Descending FlightAware ADS-B
Sat 12:36:07 PM 42.8380 -82.9400 283° West 396 456 34,000  Level FlightAware ADS-B
Sat 12:36:47 PM 42.8530 -83.0330 282° West 393 452 34,000  Level FlightAware ADS-B
Sat 12:37:22 PM 42.8680 -83.1220 283° West 389 448 34,000  Level FlightAware ADS-B
Sat 12:38:12 PM 42.8870 -83.2410 282° West 394 453 34,000  Level FlightAware ADS-B
Sat 12:38:52 PM 42.9030 -83.3410 282° West 399 459 34,000  Level FlightAware ADS-B
Sat 12:39:47 PM 42.9230 -83.4710 282° West 405 466 34,000  Level FlightAware ADS-B
Sat 12:40:32 PM 42.9420 -83.5890 282° West 410 472 34,000 67 Level FlightAware ADS-B
Sat 12:41:17 PM 42.9600 -83.7020 282° West 409 471 34,100  Climbing FlightAware ADS-B
Sat 12:41:52 PM 42.9710 -83.7850 280° West 408 470 34,000 -71 Descending FlightAware ADS-B
Sat 12:42:42 PM 42.9860 -83.9380 278° West 409 471 34,000  Level FlightAware ADS-B
Sat 12:43:22 PM 42.9970 -84.0390 279° West 410 472 34,000  Level FlightAware ADS-B
Sat 12:44:02 PM 43.0070 -84.1430 278° West 410 472 34,000  Level FlightAware ADS-B
Sat 12:44:47 PM 43.0180 -84.2530 278° West 411 473 34,000  Level FlightAware ADS-B
Sat 12:45:27 PM 43.0290 -84.3620 278° West 413 475 34,000  Level FlightAware ADS-B
Sat 12:46:12 PM 43.0400 -84.4770 277° West 415 478 34,000  Level FlightAware ADS-B
Sat 12:46:52 PM 43.0500 -84.5800 278° West 416 479 34,000  Level FlightAware ADS-B
Sat 12:47:32 PM 43.0600 -84.6860 277° West 417 480 34,000  Level FlightAware ADS-B
Sat 12:48:17 PM 43.0710 -84.7990 278° West 416 479 34,000  Level FlightAware ADS-B
Sat 12:48:57 PM 43.0810 -84.9080 277° West 414 476 34,000  Level FlightAware ADS-B
Sat 12:49:42 PM 43.0910 -85.0230 277° West 414 476 34,000  Level FlightAware ADS-B
Sat 12:50:22 PM 43.1010 -85.1280 277° West 415 478 34,000  Level FlightAware ADS-B
Sat 12:51:02 PM 43.1100 -85.2310 277° West 417 480 34,000  Level FlightAware ADS-B
Sat 12:51:47 PM 43.1200 -85.3470 277° West 417 480 34,000  Level FlightAware ADS-B
Sat 12:52:27 PM 43.1300 -85.4550 277° West 416 479 34,000  Level FlightAware ADS-B
Sat 12:53:12 PM 43.1400 -85.5700 277° West 414 476 34,000  Level FlightAware ADS-B
Sat 12:53:52 PM 43.1490 -85.6720 277° West 414 476 34,000  Level FlightAware ADS-B
Sat 12:54:32 PM 43.1580 -85.7780 277° West 414 476 34,000  Level FlightAware ADS-B
Sat 12:55:17 PM 43.1680 -85.8930 277° West 415 478 34,000  Level FlightAware ADS-B
Sat 12:55:57 PM 43.1770 -86.0020 276° West 416 479 34,000  Level FlightAware ADS-B
Sat 12:56:37 PM 43.1850 -86.1070 276° West 418 481 34,000  Level FlightAware ADS-B
Sat 12:57:17 PM 43.1930 -86.2020 277° West 420 483 34,000  Level FlightAware ADS-B
Sat 12:57:57 PM 43.1980 -86.3000 274° West 420 483 34,000  Level FlightAware ADS-B
Sat 12:58:42 PM 43.1940 -86.4220 267° West 420 483 34,000  Level FlightAware ADS-B
Sat 12:59:22 PM 43.1900 -86.5300 267° West 418 481 34,000  Level FlightAware ADS-B
Sat 01:00:12 PM 43.1860 -86.6680 268° West 415 478 34,000  Level FlightAware ADS-B
Sat 01:00:42 PM 43.1830 -86.7470 267° West 415 478 34,000  Level FlightAware ADS-B
Sat 01:01:32 PM 43.1780 -86.8720 267° West 414 476 34,000  Level FlightAware ADS-B
Sat 01:02:17 PM 43.1740 -86.9920 267° West 415 478 34,000  Level FlightAware ADS-B
Sat 01:02:57 PM 43.1690 -87.1020 266° West 417 480 34,000  Level FlightAware ADS-B
Sat 01:03:42 PM 43.1650 -87.2170 267° West 416 479 34,000  Level FlightAware ADS-B
Sat 01:04:22 PM 43.1600 -87.3270 266° West 415 478 34,000  Level FlightAware ADS-B
Sat 01:04:57 PM 43.1570 -87.4130 267° West 414 476 34,000  Level FlightAware ADS-B
Sat 01:05:47 PM 43.1510 -87.5440 266° West 413 475 34,000  Level FlightAware ADS-B
Sat 01:06:27 PM 43.1470 -87.6490 267° West 413 475 34,000  Level FlightAware ADS-B
Sat 01:07:07 PM 43.1420 -87.7460 266° West 414 476 34,000  Level FlightAware ADS-B
Sat 01:07:52 PM 43.1370 -87.8720 267° West 413 475 34,000  Level FlightAware ADS-B
Sat 01:08:32 PM 43.1320 -87.9810 266° West 412 474 34,000  Level FlightAware ADS-B
Sat 01:09:12 PM 43.1270 -88.0820 266° West 412 474 34,000  Level FlightAware ADS-B
Sat 01:09:57 PM 43.1210 -88.2000 266° West 413 475 34,000  Level FlightAware ADS-B
Sat 01:10:42 PM 43.1140 -88.3130 265° West 413 475 34,000  Level FlightAware ADS-B
Sat 01:11:22 PM 43.1010 -88.4240 261° West 415 478 34,000  Level FlightAware ADS-B
Sat 01:12:02 PM 43.0890 -88.5190 260° West 417 480 34,000  Level FlightAware ADS-B
Sat 01:12:47 PM 43.0750 -88.6390 261° West 416 479 34,000  Level FlightAware ADS-B
Sat 01:13:27 PM 43.0630 -88.7400 261° West 414 476 34,000  Level FlightAware ADS-B
Sat 01:14:07 PM 43.0500 -88.8430 260° West 411 473 34,000  Level FlightAware ADS-B
Sat 01:14:47 PM 43.0380 -88.9430 261° West 408 470 34,000  Level FlightAware ADS-B
Sat 01:15:32 PM 43.0230 -89.0650 260° West 406 467 34,000  Level FlightAware ADS-B
Sat 01:16:12 PM 43.0110 -89.1600 260° West 406 467 34,000  Level FlightAware ADS-B
Sat 01:16:57 PM 42.9960 -89.2810 260° West 407 468 34,000  Level FlightAware ADS-B
Sat 01:17:37 PM 42.9830 -89.3770 260° West 408 470 34,000  Level FlightAware ADS-B
Sat 01:18:27 PM 42.9670 -89.5050 260° West 407 468 34,000  Level FlightAware ADS-B
Sat 01:19:07 PM 42.9550 -89.5990 260° West 408 470 34,000  Level FlightAware ADS-B
Sat 01:19:47 PM 42.9410 -89.7070 260° West 409 471 34,000  Level FlightAware ADS-B
Sat 01:20:32 PM 42.9260 -89.8190 260° West 410 472 34,000  Level FlightAware ADS-B
Sat 01:21:12 PM 42.9140 -89.9130 260° West 410 472 34,000  Level FlightAware ADS-B
Sat 01:21:57 PM 42.8980 -90.0300 259° West 409 471 34,000  Level FlightAware ADS-B
Sat 01:22:27 PM 42.8880 -90.1080 260° West 409 471 34,000  Level FlightAware ADS-B
Sat 01:23:17 PM 42.8710 -90.2340 260° West 410 472 34,000  Level FlightAware ADS-B
Sat 01:24:02 PM 42.8550 -90.3510 259° West 410 472 34,000  Level FlightAware ADS-B
Sat 01:24:37 PM 42.8440 -90.4370 260° West 411 473 34,000 75 Level FlightAware ADS-B
Sat 01:25:22 PM 42.8270 -90.5530 259° West 409 471 34,100  Climbing FlightAware ADS-B
Sat 01:26:07 PM 42.8120 -90.6630 260° West 407 468 34,000 -71 Descending FlightAware ADS-B
Sat 01:26:47 PM 42.7970 -90.7700 259° West 407 468 34,000  Level FlightAware ADS-B
Sat 01:27:32 PM 42.7810 -90.8850 259° West 407 468 34,000  Level FlightAware ADS-B
Sat 01:28:12 PM 42.7660 -90.9870 259° West 409 471 34,000  Level FlightAware ADS-B
Sat 01:28:52 PM 42.7520 -91.0890 259° West 410 472 34,000 71 Level FlightAware ADS-B
Sat 01:29:37 PM 42.7360 -91.2010 259° West 407 468 34,100  Climbing FlightAware ADS-B
Sat 01:30:17 PM 42.7220 -91.3000 259° West 405 466 34,000 -71 Descending FlightAware ADS-B
Sat 01:31:02 PM 42.7070 -91.4040 259° West 402 463 34,000  Level FlightAware ADS-B
Sat 01:31:42 PM 42.6930 -91.4960 258° West 402 463 34,000  Level FlightAware ADS-B
Sat 01:32:17 PM 42.6790 -91.5900 259° West 401 461 34,000  Level FlightAware ADS-B
Sat 01:33:07 PM 42.6630 -91.7030 259° West 403 464 34,000  Level FlightAware ADS-B
Sat 01:33:47 PM 42.6470 -91.8070 258° West 402 463 34,000  Level FlightAware ADS-B
Sat 01:34:27 PM 42.6320 -91.9070 259° West 403 464 34,000  Level FlightAware ADS-B
Sat 01:35:12 PM 42.6150 -92.0220 259° West 405 466 34,000  Level FlightAware ADS-B
Sat 01:35:52 PM 42.5990 -92.1250 258° West 406 467 34,000 80 Level FlightAware ADS-B
Sat 01:36:27 PM 42.5860 -92.2080 258° West 406 467 34,100  Climbing FlightAware ADS-B
Sat 01:37:17 PM 42.5660 -92.3350 258° West 405 466 34,000 -71 Descending FlightAware ADS-B
Sat 01:37:52 PM 42.5450 -92.4280 253° West 409 471 34,000  Level FlightAware ADS-B
Sat 01:38:42 PM 42.5060 -92.5410 245° Southwest 409 471 34,000  Level FlightAware ADS-B
Sat 01:39:22 PM 42.4730 -92.6370 245° Southwest 409 471 34,000  Level FlightAware ADS-B
Sat 01:40:02 PM 42.4420 -92.7250 245° Southwest 409 471 34,000  Level FlightAware ADS-B
Sat 01:40:52 PM 42.4010 -92.8440 245° Southwest 409 471 34,000  Level FlightAware ADS-B
Sat 01:41:42 PM 42.3670 -92.9380 244° Southwest 407 468 34,000  Level FlightAware ADS-B
Sat 01:42:22 PM 42.3280 -93.0470 244° Southwest 405 466 34,000  Level FlightAware ADS-B
Sat 01:43:07 PM 42.2960 -93.1390 245° Southwest 405 466 34,000  Level FlightAware ADS-B
Sat 01:43:47 PM 42.2610 -93.2370 244° Southwest 405 466 34,000  Level FlightAware ADS-B
Sat 01:44:27 PM 42.2290 -93.3240 244° Southwest 407 468 34,000  Level FlightAware ADS-B
Sat 01:45:07 PM 42.1950 -93.4190 244° Southwest 410 472 34,000 71 Level FlightAware ADS-B
Sat 01:45:52 PM 42.1600 -93.5180 245° Southwest 409 471 34,100 71 Climbing FlightAware ADS-B
Sat 01:46:32 PM 42.1250 -93.6100 243° Southwest 408 470 34,100  Level FlightAware ADS-B
Sat 01:47:12 PM 42.0960 -93.6870 243° Southwest 408 470 34,100  Level FlightAware ADS-B
Sat 01:47:52 PM 42.0670 -93.7640 243° Southwest 408 470 34,100  Level FlightAware ADS-B
Sat 01:48:42 PM 42.0300 -93.8610 243° Southwest 408 470 34,100  Level FlightAware ADS-B
Sat 01:49:22 PM 42.0010 -93.9380 243° Southwest 408 470 34,100  Level FlightAware ADS-B
Sat 01:50:02 PM 41.9720 -94.0150 243° Southwest 408 470 34,100  Level FlightAware ADS-B
Sat 01:50:42 PM 41.9430 -94.0910 243° Southwest 408 470 34,100  Level FlightAware ADS-B
Sat 01:51:22 PM 41.9140 -94.1680 243° Southwest 408 470 34,100  Level FlightAware ADS-B
Sat 01:52:12 PM 41.8770 -94.2640 243° Southwest 408 470 34,100  Level FlightAware ADS-B
Sat 01:52:52 PM 41.8480 -94.3410 243° Southwest 408 470 34,100  Level FlightAware ADS-B
Sat 01:53:32 PM 41.8190 -94.4180 243° Southwest 408 470 34,100  Level FlightAware ADS-B
Sat 01:54:12 PM 41.7900 -94.4950 243° Southwest 408 470 34,100  Level FlightAware ADS-B
Sat 01:55:02 PM 41.7530 -94.5900 242° Southwest 408 470 34,100  Level FlightAware ADS-B
Sat 01:55:42 PM 41.7240 -94.6670 243° Southwest 408 470 34,100 -94 Level FlightAware ADS-B
Sat 01:56:06 PM 41.6547 -94.8781 243° Southwest 395 455 34,000 -70 Descending Minneapolis Center
Sat 01:57:08 PM 41.6044 -95.0100 243° Southwest 400 460 34,000  Level Minneapolis Center
Sat 01:58:10 PM 41.5536 -95.1433 243° Southwest 404 465 34,000  Level Minneapolis Center
Sat 01:59:11 PM 41.5022 -95.2772 243° Southwest 406 467 34,000  Level Minneapolis Center
Sat 02:00:13 PM 41.4506 -95.4108 243° Southwest 405 466 34,000  Level Minneapolis Center
Sat 02:01:15 PM 41.3989 -95.5442 243° Southwest 405 466 34,000  Level Minneapolis Center
Sat 02:02:29 PM 41.3269 -95.7283 243° Southwest 394 453 34,000  Level Minneapolis Center
Sat 02:03:30 PM 41.2772 -95.8567 243° Southwest 391 450 34,000  Level Minneapolis Center
Sat 02:04:32 PM 41.2261 -95.9861 242° Southwest 395 455 34,000  Level Minneapolis Center
Sat 02:05:34 PM 41.1733 -96.1189 242° Southwest 409 471 34,000  Level Minneapolis Center
Sat 02:06:36 PM 41.1203 -96.2528 242° Southwest 410 472 34,000  Level Minneapolis Center
Sat 02:07:37 PM 41.0633 -96.3950 242° Southwest 408 470 34,000  Level Minneapolis Center
Sat 02:08:39 PM 41.0103 -96.5278 242° Southwest 408 470 34,000  Level Minneapolis Center
Sat 02:09:41 PM 40.9567 -96.6608 242° Southwest 411 473 34,000  Level Minneapolis Center
Sat 02:10:42 PM 40.9081 -96.7972 245° Southwest 407 468 34,000  Level Minneapolis Center
Sat 02:11:44 PM 40.8686 -96.9369 250° West 406 467 34,000  Level Minneapolis Center
Sat 02:12:46 PM 40.8289 -97.0767 249° West 405 466 34,000  Level Minneapolis Center
Sat 02:13:47 PM 40.7806 -97.2450 249° West 403 464 34,000  Level Minneapolis Center
Sat 02:14:49 PM 40.7436 -97.3728 249° West 402 463 34,000  Level Minneapolis Center
Sat 02:15:51 PM 40.7033 -97.5114 249° West 405 466 34,000  Level Minneapolis Center
Sat 02:16:53 PM 40.6628 -97.6514 249° West 409 471 34,000  Level Minneapolis Center
Sat 02:17:55 PM 40.6214 -97.7919 249° West 410 472 34,000  Level Minneapolis Center
Sat 02:18:56 PM 40.5803 -97.9322 249° West 409 471 34,000  Level Minneapolis Center
Sat 02:19:58 PM 40.5306 -98.1000 249° West 409 471 34,000  Level Minneapolis Center
Sat 02:20:59 PM 40.4886 -98.2403 249° West 411 473 34,000  Level Minneapolis Center
Sat 02:22:01 PM 40.4464 -98.3806 248° West 411 473 34,000  Level Minneapolis Center
Sat 02:23:03 PM 40.4044 -98.5197 248° West 407 468 34,000  Level Minneapolis Center
Sat 02:24:04 PM 40.3625 -98.6581 248° West 406 467 34,000  Level Minneapolis Center
Sat 02:25:06 PM 40.3206 -98.7958 248° West 406 467 34,000  Level Minneapolis Center
Sat 02:25:52 PM 40.2881 -98.9047 249° West 405 466 34,000  Level Denver Center
Sat 02:26:54 PM 40.2444 -99.0417 247° West 405 466 34,000  Level Denver Center
Sat 02:27:56 PM 40.2022 -99.1808 248° West 410 472 34,000  Level Denver Center
Sat 02:28:57 PM 40.1589 -99.3197 248° West 411 473 34,000  Level Denver Center
Sat 02:29:59 PM 40.1167 -99.4586 248° West 411 473 34,000  Level Denver Center
Sat 02:31:00 PM 40.0722 -99.5958 247° West 410 472 34,000  Level Denver Center
Sat 02:32:02 PM 40.0211 -99.7619 248° West 409 471 34,000  Level Denver Center
Sat 02:33:04 PM 39.9761 -99.8989 247° West 411 473 34,000  Level Denver Center
Sat 02:34:05 PM 39.9322 -100.0358 247° West 408 470 34,000  Level Denver Center
Sat 02:35:07 PM 39.8897 -100.1728 248° West 409 471 34,000  Level Denver Center
Sat 02:36:08 PM 39.8481 -100.3003 247° West 405 466 34,000  Level Denver Center
Sat 02:37:10 PM 39.7983 -100.4528 247° West 408 470 34,000 14 Level Denver Center
Sat 02:43:22 PM 39.5139 -101.3180 247° West 424 488 34,100 15 Climbing FlightAware ADS-B
Sat 02:43:52 PM 39.4904 -101.3880 247° West 422 486 34,100 -98 Level FlightAware ADS-B
Sat 02:44:23 PM 39.4666 -101.4590 247° West 421 484 34,000 -98 Descending FlightAware ADS-B
Sat 02:44:53 PM 39.4427 -101.5300 246° West 423 487 34,000  Level FlightAware ADS-B
Sat 02:45:24 PM 39.4188 -101.6010 246° West 426 490 34,000  Level FlightAware ADS-B
Sat 02:45:54 PM 39.3948 -101.6720 246° West 427 491 34,000  Level FlightAware ADS-B
Sat 02:46:22 PM 39.3727 -101.7360 246° West 428 493 34,000  Level FlightAware ADS-B
Sat 02:46:52 PM 39.3458 -101.8050 243° Southwest 429 494 34,000  Level FlightAware ADS-B
Sat 02:47:25 PM 39.3165 -101.8790 243° Southwest 428 493 34,000  Level FlightAware ADS-B
Sat 02:47:55 PM 39.2899 -101.9480 244° Southwest 429 494 34,000  Level FlightAware ADS-B
Sat 02:48:25 PM 39.2632 -102.0170 243° Southwest 431 496 34,000  Level FlightAware ADS-B
Sat 02:48:59 PM 39.2325 -102.0970 244° Southwest 431 496 34,000  Level FlightAware ADS-B
Sat 02:49:30 PM 39.2057 -102.1660 243° Southwest 432 497 34,000  Level FlightAware ADS-B
Sat 02:50:00 PM 39.1789 -102.2350 243° Southwest 432 497 34,000  Level FlightAware ADS-B
Sat 02:50:30 PM 39.1518 -102.3040 243° Southwest 433 498 34,000  Level FlightAware ADS-B
Sat 02:51:00 PM 39.1246 -102.3740 243° Southwest 435 501 34,000  Level FlightAware ADS-B
Sat 02:51:30 PM 39.0973 -102.4440 243° Southwest 437 503 34,000  Level FlightAware ADS-B
Sat 02:52:02 PM 39.0688 -102.5170 243° Southwest 439 505 34,000  Level FlightAware ADS-B
Sat 02:52:32 PM 39.0407 -102.5880 243° Southwest 440 506 34,000 98 Level FlightAware ADS-B
Sat 02:53:03 PM 39.0129 -102.6590 243° Southwest 439 505 34,100  Climbing FlightAware ADS-B
Sat 02:53:33 PM 38.9852 -102.7290 243° Southwest 440 506 34,000 -100 Descending FlightAware ADS-B
Sat 02:54:03 PM 38.9574 -102.7990 243° Southwest 440 506 34,000  Level FlightAware ADS-B
Sat 02:54:34 PM 38.9294 -102.8700 243° Southwest 439 505 34,000  Level FlightAware ADS-B
Sat 02:55:04 PM 38.9016 -102.9400 243° Southwest 440 506 34,000 100 Level FlightAware ADS-B
Sat 02:55:34 PM 38.8740 -103.0090 243° Southwest 437 503 34,100 100 Climbing FlightAware ADS-B
Sat 02:56:04 PM 38.8464 -103.0790 243° Southwest 435 501 34,100 -100 Level FlightAware ADS-B
Sat 02:56:34 PM 38.8187 -103.1470 242° Southwest 432 497 34,000 -98 Descending FlightAware ADS-B
Sat 02:57:05 PM 38.7905 -103.2180 243° Southwest 433 498 34,000  Level FlightAware ADS-B
Sat 02:57:36 PM 38.7624 -103.2870 242° Southwest 433 498 34,000  Level FlightAware ADS-B
Sat 02:58:06 PM 38.7350 -103.3550 243° Southwest 421 484 34,000  Level FlightAware ADS-B
Sat 02:58:36 PM 38.7080 -103.4220 243° Southwest 426 490 34,000  Level FlightAware ADS-B
Sat 02:59:06 PM 38.6812 -103.4890 243° Southwest 420 483 34,000  Level FlightAware ADS-B
Sat 02:59:37 PM 38.6538 -103.5560 242° Southwest 426 490 34,000  Level FlightAware ADS-B
Sat 03:00:07 PM 38.6270 -103.6220 243° Southwest 424 488 34,000  Level FlightAware ADS-B
Sat 03:00:37 PM 38.5997 -103.6890 242° Southwest 426 490 34,000  Level FlightAware ADS-B
Sat 03:01:07 PM 38.5727 -103.7560 243° Southwest 425 489 34,000  Level FlightAware ADS-B
Sat 03:01:37 PM 38.5453 -103.8230 242° Southwest 419 482 34,000  Level FlightAware ADS-B
Sat 03:02:07 PM 38.5183 -103.8880 242° Southwest 415 478 34,000  Level FlightAware ADS-B
Sat 03:02:38 PM 38.4913 -103.9540 242° Southwest 413 475 34,000  Level FlightAware ADS-B
Sat 03:03:08 PM 38.4643 -104.0200 242° Southwest 411 473 34,000  Level FlightAware ADS-B
Sat 03:03:38 PM 38.4377 -104.0840 242° Southwest 409 471 34,000  Level FlightAware ADS-B
Sat 03:04:09 PM 38.4107 -104.1490 242° Southwest 410 472 34,000  Level FlightAware ADS-B
Sat 03:04:40 PM 38.3830 -104.2160 242° Southwest 411 473 34,000  Level FlightAware ADS-B
Sat 03:05:11 PM 38.3559 -104.2810 242° Southwest 414 476 34,000  Level FlightAware ADS-B
Sat 03:05:41 PM 38.3285 -104.3470 242° Southwest 418 481 34,000  Level FlightAware ADS-B
Sat 03:06:12 PM 38.3008 -104.4140 242° Southwest 420 483 34,000 79 Level FlightAware ADS-B
Sat 03:06:57 PM 38.2602 -104.5140 243° Southwest 423 487 34,100 67 Climbing FlightAware ADS-B
Sat 03:07:41 PM 38.2220 -104.6110 243° Southwest 422 486 34,100  Level FlightAware ADS-B
Sat 03:08:16 PM 38.1911 -104.6880 243° Southwest 423 487 34,100 -88 Level FlightAware ADS-B
Sat 03:08:49 PM 38.1618 -104.7610 243° Southwest 421 484 34,000  Descending FlightAware ADS-B
Sat 03:09:19 PM 38.1351 -104.8280 243° Southwest 422 486 34,100  Climbing FlightAware ADS-B
Sat 03:09:49 PM 38.1084 -104.8940 243° Southwest 421 484 34,000 -107 Descending FlightAware ADS-B
Sat 03:10:15 PM 38.0853 -104.9510 243° Southwest 415 478 34,000  Level FlightAware ADS-B
Sat 03:10:46 PM 38.0589 -105.0160 243° Southwest 414 476 34,000  Level FlightAware ADS-B
Sat 03:11:16 PM 38.0325 -105.0810 243° Southwest 415 478 34,000  Level FlightAware ADS-B
Sat 03:11:46 PM 38.0058 -105.1470 243° Southwest 417 480 34,000  Level FlightAware ADS-B
Sat 03:12:17 PM 37.9790 -105.2130 243° Southwest 419 482 34,000  Level FlightAware ADS-B
Sat 03:12:47 PM 37.9521 -105.2790 243° Southwest 427 491 34,000  Level FlightAware ADS-B
Sat 03:13:17 PM 37.9243 -105.3470 243° Southwest 421 484 34,000  Level FlightAware ADS-B
Sat 03:13:48 PM 37.8966 -105.4150 243° Southwest 428 493 34,000  Level FlightAware ADS-B
Sat 03:14:22 PM 37.8663 -105.4890 243° Southwest 423 487 34,000  Level FlightAware ADS-B
Sat 03:14:53 PM 37.8381 -105.5570 242° Southwest 426 490 34,000  Level FlightAware ADS-B
Sat 03:15:23 PM 37.8100 -105.6260 243° Southwest 438 504 34,000  Level FlightAware ADS-B
Sat 03:15:54 PM 37.7817 -105.6940 242° Southwest 432 497 34,000  Level FlightAware ADS-B
Sat 03:16:26 PM 37.7517 -105.7660 242° Southwest 430 495 34,000  Level FlightAware ADS-B
Sat 03:16:56 PM 37.7243 -105.8330 243° Southwest 423 487 34,000  Level FlightAware ADS-B
Sat 03:17:27 PM 37.6965 -105.8990 242° Southwest 425 489 34,000 70 Level FlightAware ADS-B
Sat 03:18:22 PM 37.6472 -106.0133 242° Southwest 424 488 34,100 52 Climbing Denver Center
Sat 03:19:23 PM 37.5956 -106.1375 242° Southwest 419 482 34,100 -49 Level Denver Center
Sat 03:20:25 PM 37.5383 -106.2717 242° Southwest 417 480 34,000 -49 Descending Denver Center
Sat 03:21:26 PM 37.4875 -106.3958 243° Southwest 417 480 34,000  Level Denver Center
Sat 03:22:28 PM 37.4386 -106.5453 248° West 414 476 34,000  Level Denver Center
Sat 03:23:29 PM 37.3986 -106.6750 249° West 415 478 34,000  Level Denver Center
Sat 03:24:31 PM 37.3519 -106.8272 249° West 419 482 34,000  Level Denver Center
Sat 03:25:32 PM 37.3122 -106.9572 249° West 417 480 34,000  Level Denver Center
Sat 03:26:46 PM 37.2714 -107.0881 249° West 420 483 34,000  Level Denver Center
Sat 03:27:48 PM 37.2181 -107.2542 248° West 404 465 34,000  Level Denver Center
Sat 03:28:49 PM 37.1719 -107.4011 249° West 405 466 34,000  Level Denver Center
Sat 03:29:51 PM 37.1306 -107.5278 248° West 408 470 34,000  Level Denver Center
Sat 03:30:52 PM 37.0914 -107.6539 249° West 407 468 34,000  Level Denver Center
Sat 03:31:54 PM 37.0450 -107.7986 248° West 402 463 34,000  Level Denver Center
Sat 03:32:55 PM 37.0047 -107.9214 248° West 401 461 34,000  Level Denver Center
Sat 03:33:57 PM 36.9589 -108.0675 249° West 402 463 34,000  Level Denver Center
Sat 03:34:59 PM 36.9178 -108.1914 247° West 404 465 34,000  Level Denver Center
Sat 03:36:00 PM 36.8772 -108.3153 248° West 404 465 34,000  Level Denver Center
Sat 03:37:02 PM 36.8294 -108.4589 247° West 403 464 34,000  Level Denver Center
Sat 03:38:03 PM 36.7883 -108.5864 248° West 410 472 34,000 49 Level Denver Center
Sat 03:39:05 PM 36.7394 -108.7333 247° West 413 475 34,100 49 Climbing Denver Center
Sat 03:40:06 PM 36.6972 -108.8597 247° West 413 475 34,100 439 Level Denver Center
Sat 03:41:08 PM 36.6481 -109.0056 247° West 412 474 35,000 829 Climbing Denver Center
Sat 03:42:09 PM 36.6061 -109.1314 247° West 413 475 35,800 488 Climbing Denver Center
Sat 03:43:11 PM 36.5572 -109.2764 247° West 410 472 36,000 98 Climbing Denver Center
Sat 03:44:12 PM 36.5144 -109.4008 247° West 411 473 36,000  Level Denver Center
Sat 03:45:14 PM 36.4731 -109.5236 247° West 406 467 36,000  Level Denver Center
Sat 03:46:15 PM 36.4228 -109.6689 247° West 410 472 36,000  Level Denver Center
Sat 03:47:17 PM 36.3808 -109.7936 247° West 410 472 36,000  Level Denver Center
Sat 03:48:18 PM 36.3303 -109.9408 247° West 414 476 36,000  Level Denver Center
Sat 03:49:20 PM 36.2872 -110.0669 247° West 416 479 36,000  Level Denver Center
Sat 03:50:21 PM 36.2389 -110.1978 245° Southwest 406 467 36,000  Level Denver Center
Sat 03:51:23 PM 36.1961 -110.3233 247° West 399 459 36,000  Level Denver Center
Sat 03:52:24 PM 36.1511 -110.4506 246° West 402 463 36,000  Level Denver Center
Sat 03:53:26 PM 36.1064 -110.5778 247° West 402 463 36,000  Level Denver Center
Sat 03:54:27 PM 36.0606 -110.7075 246° West 409 471 36,000  Level Denver Center
Sat 03:55:29 PM 36.0047 -110.8608 246° West 408 470 36,000 49 Level Denver Center
Sat 03:56:30 PM 35.9597 -110.9908 247° West 411 473 36,100  Climbing Denver Center
Sat 03:57:32 PM 35.9128 -111.1200 246° West 412 474 36,000 -49 Descending Denver Center
Sat 03:58:33 PM 35.8667 -111.2475 246° West 410 472 36,000  Level Denver Center
Sat 03:59:25 PM 35.8289 -111.3544 246° West 416 479 36,000  Level Albuquerque Center
Sat 04:00:27 PM 35.7828 -111.4811 246° West 419 482 36,000  Level Albuquerque Center
Sat 04:05:32 PM 35.5310 -112.1640 246° West 421 484 36,000  Level FlightAware ADS-B
Sat 04:06:17 PM 35.4970 -112.2540 245° Southwest 421 484 36,000  Level FlightAware ADS-B
Sat 04:06:52 PM 35.4660 -112.3400 246° West 430 495 36,000 71 Level FlightAware ADS-B
Sat 04:07:42 PM 35.4240 -112.4510 245° Southwest 432 497 36,100 67 Climbing FlightAware ADS-B
Sat 04:08:22 PM 35.3910 -112.5400 246° West 430 495 36,100 -75 Level FlightAware ADS-B
Sat 04:09:02 PM 35.3570 -112.6290 245° Southwest 427 491 36,000 -71 Descending FlightAware ADS-B
Sat 04:09:47 PM 35.3190 -112.7290 245° Southwest 426 490 36,000  Level FlightAware ADS-B
Sat 04:10:27 PM 35.2870 -112.8140 245° Southwest 426 490 36,000  Level FlightAware ADS-B
Sat 04:11:12 PM 35.2500 -112.9120 245° Southwest 427 491 36,000  Level FlightAware ADS-B
Sat 04:11:52 PM 35.2160 -113.0010 245° Southwest 427 491 36,000  Level FlightAware ADS-B
Sat 04:12:32 PM 35.1830 -113.0880 245° Southwest 426 490 36,000  Level FlightAware ADS-B
Sat 04:13:17 PM 35.1450 -113.1860 245° Southwest 425 489 36,000  Level FlightAware ADS-B
Sat 04:13:57 PM 35.1120 -113.2720 245° Southwest 425 489 36,000  Level FlightAware ADS-B
Sat 04:14:42 PM 35.0740 -113.3700 245° Southwest 428 493 36,000  Level FlightAware ADS-B
Sat 04:15:22 PM 35.0410 -113.4570 245° Southwest 429 494 36,000  Level FlightAware ADS-B
Sat 04:16:07 PM 35.0010 -113.5580 244° Southwest 429 494 36,000  Level FlightAware ADS-B
Sat 04:16:47 PM 34.9680 -113.6430 245° Southwest 429 494 36,000  Level FlightAware ADS-B
Sat 04:17:27 PM 34.9330 -113.7320 244° Southwest 428 493 36,000  Level FlightAware ADS-B
Sat 04:18:12 PM 34.8960 -113.8280 245° Southwest 428 493 36,000  Level FlightAware ADS-B
Sat 04:18:52 PM 34.8620 -113.9140 244° Southwest 427 491 36,000  Level FlightAware ADS-B
Sat 04:19:37 PM 34.8230 -114.0140 245° Southwest 428 493 36,000  Level FlightAware ADS-B
Sat 04:20:17 PM 34.7960 -114.1040 250° West 421 484 36,000  Level FlightAware ADS-B
Sat 04:20:52 PM 34.7770 -114.1770 252° West 422 486 36,000  Level FlightAware ADS-B
Sat 04:21:42 PM 34.7450 -114.2960 252° West 421 484 36,000  Level FlightAware ADS-B
Sat 04:22:22 PM 34.7220 -114.3830 252° West 421 484 36,000  Level FlightAware ADS-B
Sat 04:23:02 PM 34.6970 -114.4740 252° West 421 484 36,000  Level FlightAware ADS-B
Sat 04:23:47 PM 34.6690 -114.5780 252° West 424 488 36,000  Level FlightAware ADS-B
Sat 04:24:27 PM 34.6450 -114.6680 252° West 425 489 36,000  Level FlightAware ADS-B
Sat 04:25:12 PM 34.6180 -114.7670 252° West 428 493 36,000 71 Level FlightAware ADS-B
Sat 04:25:52 PM 34.5940 -114.8580 252° West 428 493 36,100  Climbing FlightAware ADS-B
Sat 04:26:37 PM 34.5650 -114.9640 252° West 428 493 36,000 -71 Descending FlightAware ADS-B
Sat 04:27:17 PM 34.5410 -115.0490 251° West 428 493 36,000 75 Level FlightAware ADS-B
Sat 04:27:57 PM 34.5140 -115.1470 252° West 426 490 36,100  Climbing FlightAware ADS-B
Sat 04:28:42 PM 34.4870 -115.2470 252° West 424 488 36,000 -71 Descending FlightAware ADS-B
Sat 04:29:22 PM 34.4630 -115.3350 252° West 422 486 36,000  Level FlightAware ADS-B
Sat 04:30:07 PM 34.4340 -115.4370 251° West 421 484 36,000  Level FlightAware ADS-B
Sat 04:30:47 PM 34.4100 -115.5240 252° West 422 486 36,000  Level FlightAware ADS-B
Sat 04:31:27 PM 34.3860 -115.6090 251° West 423 487 36,000 -141 Level FlightAware ADS-B
Sat 04:32:12 PM 34.3510 -115.7130 248° West 435 501 35,800 -776 Descending FlightAware ADS-B
Sat 04:32:52 PM 34.3070 -115.7960 237° Southwest 441 507 34,900 -1,341 Descending FlightAware ADS-B
Sat 04:33:37 PM 34.2550 -115.8940 237° Southwest 448 516 33,900 -1,553 Descending FlightAware ADS-B
Sat 04:34:17 PM 34.2300 -115.9800 251° West 441 507 32,700 -1,906 Descending FlightAware ADS-B
Sat 04:35:02 PM 34.2040 -116.0910 254° West 442 509 31,200 -2,047 Descending FlightAware ADS-B
Sat 04:35:42 PM 34.1820 -116.1820 254° West 435 501 29,800 -2,100 Descending FlightAware ADS-B
Sat 04:36:22 PM 34.1590 -116.2770 254° West 425 489 28,400 -2,047 Descending FlightAware ADS-B
Sat 04:37:07 PM 34.1350 -116.3750 254° West 414 476 26,900 -1,976 Descending FlightAware ADS-B
Sat 04:37:47 PM 34.1140 -116.4610 254° West 399 459 25,600 -2,118 Descending FlightAware ADS-B
Sat 04:38:32 PM 34.0900 -116.5610 254° West 388 447 23,900 -2,118 Descending FlightAware ADS-B
Sat 04:39:12 PM 34.0700 -116.6430 254° West 382 440 22,600 -1,976 Descending FlightAware ADS-B
Sat 04:39:57 PM 34.0480 -116.7310 253° West 375 432 21,100 -2,047 Descending FlightAware ADS-B
Sat 04:40:37 PM 34.0280 -116.8120 253° West 375 432 19,700 -2,118 Descending FlightAware ADS-B
Sat 04:41:22 PM 34.0050 -116.9040 253° West 370 426 18,100 -1,906 Descending FlightAware ADS-B
Sat 04:42:02 PM 33.9870 -116.9800 254° West 356 410 17,000 -825 Descending FlightAware ADS-B
Sat 04:42:42 PM 33.9680 -117.0570 253° West 368 423 17,000 -282 Level FlightAware ADS-B
Sat 04:43:27 PM 33.9510 -117.1450 257° West 375 432 16,600 -918 Descending FlightAware ADS-B
Sat 04:44:07 PM 33.9440 -117.2260 264° West 359 413 15,700 -1,350 Descending FlightAware ADS-B
Sat 04:44:47 PM 33.9380 -117.3060 265° West 353 406 14,800 -1,389 Descending FlightAware ADS-B
Sat 04:45:42 PM 33.9450 -117.4130 275° West 352 405 13,500 -1,380 Descending FlightAware ADS-B
Sat 04:46:27 PM 33.9730 -117.4920 293° West 344 396 12,500 -1,341 Descending FlightAware ADS-B
Sat 04:47:07 PM 33.9990 -117.5640 294° West 349 402 11,600 -1,129 Descending FlightAware ADS-B
Sat 04:47:52 PM 34.0250 -117.6440 291° West 321 369 10,900 -847 Descending FlightAware ADS-B
Sat 04:48:32 PM 34.0200 -117.7120 265° West 291 335 10,400 -943 Descending FlightAware ADS-B
Sat 04:49:02 PM 34.0160 -117.7590 264° West 281 323 9,800 -1,200 Descending FlightAware ADS-B
Sat 04:49:27 PM 34.0120 -117.7970 263° West 276 318 9,300 -1,500 Descending FlightAware ADS-B
Sat 04:49:42 PM 34.0100 -117.8200 264° West 279 321 8,800 -1,600 Descending FlightAware ADS-B
Sat 04:50:12 PM 34.0060 -117.8660 264° West 271 312 8,100 -1,309 Descending FlightAware ADS-B
Sat 04:50:37 PM 34.0020 -117.9010 262° West 265 305 7,600 -1,418 Descending FlightAware ADS-B
Sat 04:51:07 PM 33.9980 -117.9450 264° West 264 304 6,800 -1,636 Descending FlightAware ADS-B
Sat 04:51:32 PM 33.9940 -117.9830 263° West 264 304 6,100 -1,418 Descending FlightAware ADS-B
Sat 04:52:02 PM 33.9900 -118.0270 264° West 257 296 5,500 -1,200 Descending FlightAware ADS-B
Sat 04:52:27 PM 33.9860 -118.0620 262° West 261 300 5,000 -764 Descending FlightAware ADS-B
Sat 04:52:57 PM 33.9820 -118.1020 263° West 235 270 4,800 -500 Descending FlightAware ADS-B
Sat 04:53:27 PM 33.9780 -118.1400 263° West 222 255 4,500 -982 Descending FlightAware ADS-B
Sat 04:53:52 PM 33.9750 -118.1720 264° West 219 252 3,900 -1,418 Descending FlightAware ADS-B
Sat 04:54:22 PM 33.9720 -118.2040 264° West 213 245 3,200 -1,100 Descending FlightAware ADS-B
Sat 04:54:52 PM 33.9680 -118.2410 263° West 193 222 2,800 -873 Descending FlightAware ADS-B
Sat 04:55:17 PM 33.9660 -118.2650 264° West 187 215 2,400 -933 Descending FlightAware ADS-B
Sat 04:55:37 PM 33.9640 -118.2830 262° West 177 204 2,100 -655 Descending FlightAware ADS-B
Sat 04:56:12 PM 33.9620 -118.3030 263° West 166 191 1,800 -646 Descending FlightAware ADS-B
Sat 04:56:42 PM 33.9600 -118.3250 264° West 146 168 1,400 -400 Descending FlightAware ADS-B
Sat 04:57:12 PM 33.9570 -118.3460 260° West 145 167 1,400 -873 Level FlightAware ADS-B
Sat 04:57:37 PM 33.9550 -118.3750 265° West 137 158 600 -1,200 Descending FlightAware ADS-B
Sat 04:58:07 PM 33.9530 -118.3940 263° West 132 152 300 -369 Descending FlightAware ADS-B
Sat 04:58:42 PM 33.9510 -118.4170 264° West 134 154 200 -171 Descending FlightAware ADS-B

Login

Don't have an account? Register now (free) for customized features, flight alerts, and more!